Date,TemperatureHighF,TemperatureAvgF,TemperatureLowF,DewpointHighF,DewpointAvgF,DewpointLowF,HumidityHigh,HumidityAvg,HumidityLow,PressureMaxIn,PressureMinIn,WindSpeedMaxMPH,WindSpeedAvgMPH,GustSpeedMaxMPH,PrecipitationSumIn
2013-7-1,80.0,73.8,71.0,75.0,72.2,69.0,100,95,70,30.04,29.90,12,5,20,0.48
2013-7-2,84.0,74.3,71.0,74.0,71.6,68.0,100,92,63,30.22,30.04,12,5,13,0.03
2013-7-3,85.0,76.1,69.0,76.0,71.9,69.0,100,88,66,30.25,30.19,10,3,13,0.13
2013-7-4,88.0,77.1,72.0,76.0,71.9,69.0,100,86,57,30.28,30.19,9,2,14,0.03
2013-7-5,91.0,78.3,71.0,76.0,72.0,69.0,100,83,56,30.25,30.16,9,2,10,0.03
2013-7-6,94.0,81.8,75.0,76.0,73.2,69.0,100,78,49,30.19,30.07,6,2,8,0.01
2013-7-7,94.0,83.3,75.0,74.0,72.4,69.0,93,71,51,30.10,29.98,6,2,9,0.03
2013-7-8,92.0,79.4,74.0,74.0,67.8,-99.9,93,71,51,30.10,30.01,6,2,10,0.03
2013-7-9,87.0,77.5,72.0,77.0,71.8,70.0,100,84,60,30.10,30.01,5,1,7,0.01
2013-7-10,85.0,74.6,71.0,77.0,69.1,-99.9,100,88,67,30.04,29.87,6,1,8,0.09
2013-7-11,81.0,75.3,70.0,76.0,71.5,69.0,100,88,75,29.93,29.87,8,1,8,1.16
2013-7-12,73.0,70.5,68.0,73.0,70.5,68.0,100,100,100,30.01,29.90,8,1,13,0.69
2013-7-13,87.0,75.8,67.0,78.0,70.9,67.0,100,86,61,30.31,30.01,10,3,14,0.28
2013-7-14,89.0,78.8,73.0,77.0,72.5,69.0,100,83,55,30.34,30.28,6,1,7,0.00
2013-7-15,92.0,79.4,71.0,77.0,72.2,70.0,100,81,51,30.31,30.16,6,2,9,0.00
2013-7-16,93.0,82.9,75.0,77.0,70.4,66.0,97,68,46,30.19,30.13,6,2,9,0.02
2013-7-17,95.0,82.5,73.0,75.0,69.8,67.0,93,68,43,30.19,30.10,5,1,6,0.02
2013-7-18,94.0,82.1,75.0,76.0,72.5,69.0,96,74,51,30.10,29.98,5,1,7,0.00
2013-7-19,94.0,82.7,78.0,75.0,72.2,70.0,85,71,53,30.01,29.87,7,1,10,0.00
2013-7-20,94.0,84.3,80.0,75.0,70.9,-99.9,81,67,49,29.90,29.78,7,2,9,0.00
2013-7-21,91.0,79.0,72.0,74.0,70.8,67.0,100,78,50,29.96,29.87,8,1,10,0.16
2013-7-22,86.0,75.9,72.0,75.0,71.5,69.0,97,87,58,29.93,29.78,7,2,10,0.00
2013-7-23,89.0,79.8,73.0,78.0,72.9,69.0,100,81,57,29.78,29.60,5,2,8,0.14
2013-7-24,88.0,80.0,72.0,74.0,68.7,63.0,97,70,52,29.87,29.66,8,3,13,0.14
2013-7-25,78.0,70.1,64.0,64.0,59.3,54.0,88,69,59,30.01,29.87,8,2,13,0.01
2013-7-26,83.0,72.5,65.0,65.0,61.2,58.0,88,69,46,30.07,29.98,5,2,9,0.01
2013-7-27,85.0,72.4,66.0,70.0,65.5,62.0,100,81,49,30.07,29.96,7,1,12,0.01
2013-7-28,84.0,74.2,67.0,73.0,69.2,66.0,100,85,64,29.98,29.93,10,3,12,0.00
2013-7-29,84.0,76.4,70.0,73.0,66.4,57.0,100,75,48,30.13,29.96,8,2,13,0.00
2013-7-30,84.0,73.0,63.0,62.0,59.4,56.0,87,65,39,30.19,30.13,7,2,10,0.04
2013-7-31,85.0,72.6,64.0,70.0,62.8,59.0,98,73,50,30.16,30.04,7,1,9,0.11